createdAt,value
2022-08-25T00:01:14.184Z,24.00
2022-08-25T00:05:23.180Z,23.90
2022-08-25T00:09:33.395Z,23.90
2022-08-25T00:13:45.039Z,23.80
2022-08-25T00:17:53.835Z,23.80
2022-08-25T00:22:03.840Z,23.70
2022-08-25T00:26:13.066Z,23.70
2022-08-25T00:30:21.810Z,23.70
2022-08-25T00:34:34.320Z,23.60
2022-08-25T00:38:44.941Z,23.60
2022-08-25T00:42:54.419Z,23.60
2022-08-25T00:47:04.746Z,23.50
2022-08-25T00:51:16.467Z,23.40
2022-08-25T00:55:44.464Z,23.40
2022-08-25T00:59:53.234Z,23.30
2022-08-25T01:04:01.918Z,23.30
2022-08-25T01:08:11.567Z,23.20
2022-08-25T01:12:22.861Z,23.20
2022-08-25T01:16:31.541Z,23.10
2022-08-25T01:20:40.119Z,23.10
2022-08-25T01:25:04.004Z,23.10
2022-08-25T01:29:21.807Z,23.00
2022-08-25T01:33:49.685Z,23.00
2022-08-25T01:37:58.348Z,23.00
2022-08-25T01:42:31.986Z,22.90
2022-08-25T01:46:40.624Z,22.90
2022-08-25T01:50:49.239Z,22.90
2022-08-25T01:54:57.918Z,22.80
2022-08-25T01:59:06.623Z,22.70
2022-08-25T02:03:36.018Z,22.70
2022-08-25T02:07:45.627Z,22.60
2022-08-25T02:11:54.321Z,22.60
2022-08-25T02:16:03.062Z,22.60
2022-08-25T02:20:12.185Z,22.50
2022-08-25T02:24:20.942Z,22.40
2022-08-25T02:28:29.558Z,22.30
2022-08-25T02:32:39.332Z,22.20
2022-08-25T02:36:48.019Z,22.10
2022-08-25T02:40:58.345Z,22.10
2022-08-25T02:45:07.800Z,22.00
2022-08-25T02:49:16.601Z,21.90
2022-08-25T02:53:25.214Z,21.90
2022-08-25T02:57:33.957Z,21.80
2022-08-25T03:01:42.658Z,21.80
2022-08-25T03:05:51.280Z,21.80
2022-08-25T03:09:59.971Z,21.70
2022-08-25T03:14:10.902Z,21.70
2022-08-25T03:18:19.507Z,21.70
2022-08-25T03:22:28.112Z,21.60
2022-08-25T03:26:56.367Z,21.50
2022-08-25T03:31:05.444Z,21.50
2022-08-25T03:35:14.404Z,21.40
2022-08-25T03:39:25.652Z,21.40
2022-08-25T03:43:34.259Z,21.30
2022-08-25T03:48:02.281Z,21.30
2022-08-25T03:52:10.952Z,21.30
2022-08-25T03:56:20.119Z,21.20
2022-08-25T04:00:28.739Z,21.20
2022-08-25T04:04:37.536Z,21.10
2022-08-25T04:08:46.232Z,21.10
2022-08-25T04:12:56.007Z,21.10
2022-08-25T04:17:05.459Z,21.10
2022-08-25T04:21:15.002Z,21.00
2022-08-25T04:25:23.625Z,21.00
2022-08-25T04:29:32.674Z,21.00
2022-08-25T04:33:42.441Z,21.00
2022-08-25T04:37:51.149Z,21.00
2022-08-25T04:42:00.643Z,20.90
2022-08-25T04:46:12.738Z,20.90
2022-08-25T04:50:21.352Z,20.90
2022-08-25T04:54:30.020Z,20.90
2022-08-25T04:58:41.633Z,20.80
2022-08-25T05:02:50.418Z,20.80
2022-08-25T05:06:59.360Z,20.80
2022-08-25T05:11:09.201Z,20.70
2022-08-25T05:15:36.227Z,20.70
2022-08-25T05:19:45.003Z,20.70
2022-08-25T05:23:57.630Z,20.70
2022-08-25T05:28:06.856Z,20.70
2022-08-25T05:32:15.616Z,20.70
2022-08-25T05:36:45.233Z,20.70
2022-08-25T05:41:03.031Z,20.70
2022-08-25T05:45:15.840Z,20.70
2022-08-25T05:49:22.697Z,20.80
2022-08-25T05:53:34.090Z,20.80
2022-08-25T05:57:43.138Z,20.80
2022-08-25T06:02:10.129Z,20.90
2022-08-25T06:06:18.806Z,20.90
2022-08-25T06:10:28.264Z,21.00
2022-08-25T06:14:37.876Z,21.00
2022-08-25T06:18:46.726Z,21.10
2022-08-25T06:22:55.772Z,21.20
2022-08-25T06:27:04.692Z,21.20
2022-08-25T06:31:13.352Z,21.30
2022-08-25T06:35:22.951Z,21.40
2022-08-25T06:39:31.667Z,21.50
2022-08-25T06:43:48.001Z,21.70
2022-08-25T06:47:54.735Z,21.70
2022-08-25T06:52:06.695Z,21.80
2022-08-25T06:56:15.942Z,21.90
2022-08-25T07:00:30.609Z,22.10
2022-08-25T07:04:36.454Z,22.20
2022-08-25T07:08:45.425Z,22.40
2022-08-25T07:12:54.042Z,22.50
2022-08-25T07:17:02.655Z,22.70
2022-08-25T07:21:14.933Z,22.80
2022-08-25T07:25:23.878Z,22.90
2022-08-25T07:29:34.077Z,23.00
2022-08-25T07:33:44.749Z,23.10
2022-08-25T07:37:59.747Z,23.20
2022-08-25T07:42:11.929Z,23.30
2022-08-25T07:46:20.195Z,23.40
2022-08-25T07:50:31.253Z,23.50
2022-08-25T07:54:39.853Z,23.60
2022-08-25T07:58:48.999Z,23.70
2022-08-25T08:02:59.137Z,23.90
2022-08-25T08:07:12.095Z,24.00
2022-08-25T08:11:20.871Z,24.20
2022-08-25T08:15:32.397Z,24.40
2022-08-25T08:19:44.852Z,24.60
2022-08-25T08:23:58.153Z,24.70
2022-08-25T08:28:03.183Z,24.90
2022-08-25T08:32:13.500Z,25.00
2022-08-25T08:36:25.476Z,25.20
2022-08-25T08:40:36.222Z,25.30
2022-08-25T08:44:49.647Z,25.50
2022-08-25T08:49:04.346Z,25.80
2022-08-25T08:53:24.663Z,25.90
2022-08-25T08:57:36.425Z,26.20
2022-08-25T09:01:54.324Z,26.40
2022-08-25T09:06:06.808Z,26.60
2022-08-25T09:10:17.477Z,26.70
2022-08-25T09:14:53.886Z,26.90
2022-08-25T09:19:03.100Z,27.10
2022-08-25T09:23:37.502Z,27.30
2022-08-25T09:28:04.415Z,27.50
2022-08-25T09:32:15.133Z,27.70
2022-08-25T09:36:24.771Z,27.90
2022-08-25T09:40:46.217Z,28.10
2022-08-25T09:44:55.216Z,28.30
2022-08-25T09:49:16.480Z,28.50
2022-08-25T09:53:25.157Z,28.60
2022-08-25T09:57:45.416Z,28.80
2022-08-25T10:01:58.249Z,29.00
2022-08-25T10:06:13.180Z,29.20
2022-08-25T10:10:27.435Z,29.30
2022-08-25T10:14:44.293Z,29.50
2022-08-25T10:19:15.625Z,29.70
2022-08-25T10:23:27.290Z,29.90
2022-08-25T10:27:56.731Z,30.10
2022-08-25T10:32:14.701Z,30.30
2022-08-25T10:36:26.371Z,30.50
2022-08-25T10:40:53.762Z,30.60
2022-08-25T10:45:44.232Z,30.70
2022-08-25T10:49:56.246Z,30.70
2022-08-25T10:54:21.048Z,30.80
2022-08-25T10:59:07.196Z,30.90
2022-08-25T11:03:21.372Z,31.10
2022-08-25T11:07:43.646Z,31.30
2022-08-25T11:12:07.249Z,31.40
2022-08-25T11:16:25.497Z,31.40
2022-08-25T11:20:37.159Z,31.50
2022-08-25T11:24:49.649Z,31.50
2022-08-25T11:29:11.996Z,31.50
2022-08-25T11:33:23.237Z,31.60
2022-08-25T11:37:33.894Z,31.70
2022-08-25T11:41:45.678Z,31.80
2022-08-25T11:46:23.091Z,31.90
2022-08-25T11:50:36.668Z,32.00
2022-08-25T11:54:46.299Z,32.10
2022-08-25T11:59:14.327Z,32.20
2022-08-25T12:03:45.092Z,32.30
2022-08-25T12:08:14.876Z,32.40
2022-08-25T12:12:32.657Z,32.50
2022-08-25T12:16:44.618Z,32.60
2022-08-25T12:20:59.972Z,32.80
2022-08-25T12:25:23.645Z,32.80
2022-08-25T12:29:44.633Z,32.80
2022-08-25T12:34:05.200Z,32.90
2022-08-25T12:38:22.259Z,32.90
2022-08-25T12:42:39.804Z,32.80
2022-08-25T12:46:49.987Z,32.80
2022-08-25T12:51:13.733Z,33.00
2022-08-25T12:55:25.159Z,33.10
2022-08-25T12:59:39.787Z,33.10
2022-08-25T13:04:25.049Z,33.30
2022-08-25T13:09:00.959Z,33.40
2022-08-25T13:13:37.793Z,33.40
2022-08-25T13:17:47.209Z,33.50
2022-08-25T13:21:59.057Z,33.50
2022-08-25T13:26:08.398Z,33.40
2022-08-25T13:30:27.410Z,33.30
2022-08-25T13:34:42.882Z,33.30
2022-08-25T13:38:52.058Z,33.40
2022-08-25T13:43:03.570Z,33.40
2022-08-25T13:47:16.594Z,33.30
2022-08-25T13:51:49.194Z,33.50
2022-08-25T13:56:00.643Z,33.60
2022-08-25T14:00:11.909Z,33.60
2022-08-25T14:04:51.168Z,33.70
2022-08-25T14:09:04.194Z,33.70
2022-08-25T14:13:18.924Z,33.70
2022-08-25T14:17:39.873Z,33.70
2022-08-25T14:21:40.959Z,33.80
2022-08-25T14:25:55.447Z,33.80
2022-08-25T14:30:04.397Z,33.70
2022-08-25T14:34:18.872Z,33.60
2022-08-25T14:38:29.428Z,33.60
2022-08-25T14:42:38.906Z,33.60
2022-08-25T14:46:57.206Z,33.60
2022-08-25T14:51:07.330Z,33.70
2022-08-25T14:55:17.422Z,33.70
2022-08-25T14:59:26.491Z,33.70
2022-08-25T15:03:38.929Z,33.60
2022-08-25T15:08:05.770Z,33.60
2022-08-25T15:12:26.019Z,33.60
2022-08-25T15:16:35.188Z,33.60
2022-08-25T15:20:44.345Z,33.50
2022-08-25T15:24:53.026Z,33.50
2022-08-25T15:29:01.811Z,33.40
2022-08-25T15:33:10.780Z,33.30
2022-08-25T15:37:19.538Z,33.10
2022-08-25T15:41:29.454Z,33.10
2022-08-25T15:45:38.359Z,33.10
2022-08-25T15:49:47.265Z,33.00
2022-08-25T15:53:57.012Z,33.00
2022-08-25T15:58:06.590Z,32.90
2022-08-25T16:02:18.001Z,32.80
2022-08-25T16:06:27.895Z,32.70
2022-08-25T16:10:42.198Z,32.60
2022-08-25T16:14:51.182Z,32.50
2022-08-25T16:19:01.476Z,32.50
2022-08-25T16:23:10.282Z,32.40
2022-08-25T16:27:19.983Z,32.30
2022-08-25T16:31:28.931Z,32.20
2022-08-25T16:35:37.582Z,32.10
2022-08-25T16:39:49.396Z,32.10
2022-08-25T16:43:58.482Z,32.20
2022-08-25T16:48:07.597Z,32.20
2022-08-25T16:52:35.647Z,32.00
2022-08-25T16:56:44.475Z,31.90
2022-08-25T17:00:53.100Z,31.90
2022-08-25T17:05:03.207Z,31.70
2022-08-25T17:09:17.367Z,31.60
2022-08-25T17:13:25.453Z,31.50
2022-08-25T17:17:36.274Z,31.50
2022-08-25T17:21:50.018Z,31.40
2022-08-25T17:25:58.755Z,31.30
2022-08-25T17:30:08.797Z,31.20
2022-08-25T17:34:23.088Z,31.20
2022-08-25T17:38:33.225Z,31.20
2022-08-25T17:42:42.001Z,31.10
2022-08-25T17:46:50.855Z,31.10
2022-08-25T17:51:01.442Z,31.00
2022-08-25T17:55:10.981Z,30.90
2022-08-25T17:59:21.073Z,30.80
2022-08-25T18:03:30.918Z,30.70
2022-08-25T18:07:39.679Z,30.60
2022-08-25T18:11:50.431Z,30.50
2022-08-25T18:15:59.866Z,30.30
2022-08-25T18:20:11.373Z,30.20
2022-08-25T18:24:20.491Z,29.90
2022-08-25T18:28:32.137Z,29.70
2022-08-25T18:32:40.777Z,29.50
2022-08-25T18:36:50.013Z,29.30
2022-08-25T18:41:01.982Z,29.10
2022-08-25T18:45:12.330Z,29.00
2022-08-25T18:49:21.407Z,28.80
2022-08-25T18:53:37.091Z,28.60
2022-08-25T18:57:43.467Z,28.50
2022-08-25T19:01:53.596Z,28.30
2022-08-25T19:06:02.724Z,28.20
2022-08-25T19:10:11.659Z,28.10
2022-08-25T19:14:20.958Z,28.00
2022-08-25T19:18:30.253Z,27.90
2022-08-25T19:22:41.957Z,27.80
2022-08-25T19:26:54.162Z,27.70
2022-08-25T19:31:01.475Z,27.50
2022-08-25T19:35:30.443Z,27.50
2022-08-25T19:39:39.062Z,27.30
2022-08-25T19:43:56.469Z,27.20
2022-08-25T19:48:01.775Z,27.10
2022-08-25T19:52:12.273Z,27.00
2022-08-25T19:56:21.443Z,26.90
2022-08-25T20:00:33.915Z,26.80
2022-08-25T20:04:49.745Z,26.80
2022-08-25T20:09:00.299Z,26.70
2022-08-25T20:13:08.635Z,26.60
2022-08-25T20:17:24.685Z,26.60
2022-08-25T20:21:30.877Z,26.40
2022-08-25T20:25:39.593Z,26.30
2022-08-25T20:29:50.745Z,26.20
2022-08-25T20:34:02.922Z,26.30
2022-08-25T20:38:10.486Z,26.20
2022-08-25T20:42:19.908Z,26.10
2022-08-25T20:46:28.559Z,26.00
2022-08-25T20:50:39.924Z,25.90
2022-08-25T20:55:00.675Z,25.90
2022-08-25T20:59:10.428Z,25.80
2022-08-25T21:03:20.270Z,25.80
2022-08-25T21:07:28.943Z,25.70
2022-08-25T21:11:39.898Z,25.70
2022-08-25T21:15:48.889Z,25.60
2022-08-25T21:19:57.506Z,25.60
2022-08-25T21:24:09.901Z,25.50
2022-08-25T21:28:17.710Z,25.40
2022-08-25T21:32:27.823Z,25.30
2022-08-25T21:36:36.433Z,25.20
2022-08-25T21:40:45.220Z,25.20
2022-08-25T21:44:54.038Z,25.10
2022-08-25T21:49:06.150Z,25.10
2022-08-25T21:53:14.043Z,25.00
2022-08-25T21:57:23.679Z,25.00
2022-08-25T22:01:32.537Z,24.90
2022-08-25T22:05:41.671Z,24.80
2022-08-25T22:09:51.874Z,24.70
2022-08-25T22:14:02.413Z,24.70
2022-08-25T22:18:11.034Z,24.70
2022-08-25T22:22:21.019Z,24.60
2022-08-25T22:26:31.607Z,24.50
2022-08-25T22:30:40.543Z,24.50
2022-08-25T22:34:49.584Z,24.40
2022-08-25T22:38:59.318Z,24.40
2022-08-25T22:43:10.853Z,24.40
2022-08-25T22:47:19.677Z,24.20
2022-08-25T22:51:33.314Z,24.20
2022-08-25T22:55:44.161Z,24.10
2022-08-25T22:59:55.575Z,24.10
2022-08-25T23:04:06.217Z,24.20
2022-08-25T23:08:15.505Z,24.30
2022-08-25T23:12:26.202Z,24.30
2022-08-25T23:16:56.022Z,24.10
2022-08-25T23:21:24.145Z,24.00
2022-08-25T23:25:32.752Z,23.90
2022-08-25T23:29:43.361Z,23.90
2022-08-25T23:33:52.413Z,23.80
2022-08-25T23:38:20.333Z,23.70
2022-08-25T23:42:29.015Z,23.60
2022-08-25T23:46:37.628Z,23.50
2022-08-25T23:50:48.955Z,23.40
2022-08-25T23:54:59.298Z,23.40
2022-08-25T23:59:09.324Z,23.40
